sensor_id;sensor_type;location;lat;lon;timestamp;temperature;humidity
569;DHT22;269;48.884;9.192;2022-08-21T00:01:19;18.20;99.90
569;DHT22;269;48.884;9.192;2022-08-21T00:03:48;18.20;99.90
569;DHT22;269;48.884;9.192;2022-08-21T00:06:16;18.20;99.90
569;DHT22;269;48.884;9.192;2022-08-21T00:08:43;18.20;99.90
569;DHT22;269;48.884;9.192;2022-08-21T00:11:10;18.20;99.90
569;DHT22;269;48.884;9.192;2022-08-21T00:13:38;18.20;99.90
569;DHT22;269;48.884;9.192;2022-08-21T00:16:05;18.10;99.90
569;DHT22;269;48.884;9.192;2022-08-21T00:18:33;18.10;99.90
569;DHT22;269;48.884;9.192;2022-08-21T00:21:02;18.10;99.90
569;DHT22;269;48.884;9.192;2022-08-21T00:23:29;17.90;99.90
569;DHT22;269;48.884;9.192;2022-08-21T00:25:56;18.00;99.90
569;DHT22;269;48.884;9.192;2022-08-21T00:28:23;18.00;99.90
569;DHT22;269;48.884;9.192;2022-08-21T00:30:50;17.90;99.90
569;DHT22;269;48.884;9.192;2022-08-21T00:33:18;17.80;99.90
569;DHT22;269;48.884;9.192;2022-08-21T00:35:45;17.80;99.90
569;DHT22;269;48.884;9.192;2022-08-21T00:38:13;17.80;99.90
569;DHT22;269;48.884;9.192;2022-08-21T00:40:44;17.80;99.90
569;DHT22;269;48.884;9.192;2022-08-21T00:43:14;17.80;99.90
569;DHT22;269;48.884;9.192;2022-08-21T00:45:42;17.70;99.90
569;DHT22;269;48.884;9.192;2022-08-21T00:48:09;17.70;99.90
569;DHT22;269;48.884;9.192;2022-08-21T00:50:43;17.60;99.90
569;DHT22;269;48.884;9.192;2022-08-21T00:53:13;17.60;99.90
569;DHT22;269;48.884;9.192;2022-08-21T00:55:40;17.50;99.90
569;DHT22;269;48.884;9.192;2022-08-21T00:58:10;17.50;99.90
569;DHT22;269;48.884;9.192;2022-08-21T01:00:40;17.50;99.90
569;DHT22;269;48.884;9.192;2022-08-21T01:03:11;17.50;99.90
569;DHT22;269;48.884;9.192;2022-08-21T01:05:39;17.50;99.90
569;DHT22;269;48.884;9.192;2022-08-21T01:08:07;17.50;99.90
569;DHT22;269;48.884;9.192;2022-08-21T01:10:37;17.50;99.90
569;DHT22;269;48.884;9.192;2022-08-21T01:13:05;17.50;99.90
569;DHT22;269;48.884;9.192;2022-08-21T01:15:36;17.50;99.90
569;DHT22;269;48.884;9.192;2022-08-21T01:18:07;17.50;99.90
569;DHT22;269;48.884;9.192;2022-08-21T01:20:35;17.50;99.90
569;DHT22;269;48.884;9.192;2022-08-21T01:23:04;17.50;99.90
569;DHT22;269;48.884;9.192;2022-08-21T01:25:32;17.50;99.90
569;DHT22;269;48.884;9.192;2022-08-21T01:28:06;17.50;99.90
569;DHT22;269;48.884;9.192;2022-08-21T01:30:35;17.50;99.90
569;DHT22;269;48.884;9.192;2022-08-21T01:33:03;17.50;99.90
569;DHT22;269;48.884;9.192;2022-08-21T01:35:30;17.50;99.90
569;DHT22;269;48.884;9.192;2022-08-21T01:37:58;17.50;99.90
569;DHT22;269;48.884;9.192;2022-08-21T01:40:26;17.50;99.90
569;DHT22;269;48.884;9.192;2022-08-21T01:42:53;17.50;99.90
569;DHT22;269;48.884;9.192;2022-08-21T01:45:21;17.50;99.90
569;DHT22;269;48.884;9.192;2022-08-21T01:47:48;17.50;99.90
569;DHT22;269;48.884;9.192;2022-08-21T01:50:17;17.50;99.90
569;DHT22;269;48.884;9.192;2022-08-21T01:52:45;17.40;99.90
569;DHT22;269;48.884;9.192;2022-08-21T01:55:16;17.40;99.90
569;DHT22;269;48.884;9.192;2022-08-21T01:57:46;17.30;99.90
569;DHT22;269;48.884;9.192;2022-08-21T02:00:15;17.30;99.90
569;DHT22;269;48.884;9.192;2022-08-21T02:02:42;17.10;99.90
569;DHT22;269;48.884;9.192;2022-08-21T02:05:11;17.10;99.90
569;DHT22;269;48.884;9.192;2022-08-21T02:07:40;17.10;99.90
569;DHT22;269;48.884;9.192;2022-08-21T02:10:08;17.00;99.90
569;DHT22;269;48.884;9.192;2022-08-21T02:12:36;17.00;99.90
569;DHT22;269;48.884;9.192;2022-08-21T02:15:06;17.00;99.90
569;DHT22;269;48.884;9.192;2022-08-21T02:17:39;17.00;99.90
569;DHT22;269;48.884;9.192;2022-08-21T02:20:08;16.90;99.90
569;DHT22;269;48.884;9.192;2022-08-21T02:22:35;16.80;99.90
569;DHT22;269;48.884;9.192;2022-08-21T02:25:02;16.70;99.90
569;DHT22;269;48.884;9.192;2022-08-21T02:27:36;16.60;99.90
569;DHT22;269;48.884;9.192;2022-08-21T02:30:06;16.60;99.90
569;DHT22;269;48.884;9.192;2022-08-21T02:32:34;16.50;99.90
569;DHT22;269;48.884;9.192;2022-08-21T02:35:02;16.40;99.90
569;DHT22;269;48.884;9.192;2022-08-21T02:37:29;16.30;99.90
569;DHT22;269;48.884;9.192;2022-08-21T02:39:56;16.20;99.90
569;DHT22;269;48.884;9.192;2022-08-21T02:42:25;16.10;99.90
569;DHT22;269;48.884;9.192;2022-08-21T02:44:52;16.00;99.90
569;DHT22;269;48.884;9.192;2022-08-21T02:47:21;15.90;99.90
569;DHT22;269;48.884;9.192;2022-08-21T02:49:48;15.90;99.90
569;DHT22;269;48.884;9.192;2022-08-21T02:52:15;15.80;99.90
569;DHT22;269;48.884;9.192;2022-08-21T02:54:42;15.80;99.90
569;DHT22;269;48.884;9.192;2022-08-21T02:57:09;15.70;99.90
569;DHT22;269;48.884;9.192;2022-08-21T02:59:36;15.70;99.90
569;DHT22;269;48.884;9.192;2022-08-21T03:02:04;15.70;99.90
569;DHT22;269;48.884;9.192;2022-08-21T03:04:32;15.70;99.90
569;DHT22;269;48.884;9.192;2022-08-21T03:06:59;15.60;99.90
569;DHT22;269;48.884;9.192;2022-08-21T03:09:27;15.50;99.90
569;DHT22;269;48.884;9.192;2022-08-21T03:11:54;15.40;99.90
569;DHT22;269;48.884;9.192;2022-08-21T03:14:21;15.30;99.90
569;DHT22;269;48.884;9.192;2022-08-21T03:16:48;15.30;99.90
569;DHT22;269;48.884;9.192;2022-08-21T03:19:15;15.30;99.90
569;DHT22;269;48.884;9.192;2022-08-21T03:21:43;15.30;99.90
569;DHT22;269;48.884;9.192;2022-08-21T03:24:11;15.30;99.90
569;DHT22;269;48.884;9.192;2022-08-21T03:26:38;15.30;99.90
569;DHT22;269;48.884;9.192;2022-08-21T03:29:04;15.20;99.90
569;DHT22;269;48.884;9.192;2022-08-21T03:31:33;15.10;99.90
569;DHT22;269;48.884;9.192;2022-08-21T03:34:00;15.10;99.90
569;DHT22;269;48.884;9.192;2022-08-21T03:36:28;15.10;99.90
569;DHT22;269;48.884;9.192;2022-08-21T03:38:56;15.00;99.90
569;DHT22;269;48.884;9.192;2022-08-21T03:41:24;15.00;99.90
569;DHT22;269;48.884;9.192;2022-08-21T03:43:50;14.90;99.90
569;DHT22;269;48.884;9.192;2022-08-21T03:46:18;14.90;99.90
569;DHT22;269;48.884;9.192;2022-08-21T03:48:45;14.90;99.90
569;DHT22;269;48.884;9.192;2022-08-21T03:51:12;14.80;99.90
569;DHT22;269;48.884;9.192;2022-08-21T03:53:39;14.80;99.90
569;DHT22;269;48.884;9.192;2022-08-21T03:56:08;14.80;99.90
569;DHT22;269;48.884;9.192;2022-08-21T03:58:35;14.70;99.90
569;DHT22;269;48.884;9.192;2022-08-21T04:01:03;14.70;99.90
569;DHT22;269;48.884;9.192;2022-08-21T04:03:33;14.60;99.90
569;DHT22;269;48.884;9.192;2022-08-21T04:06:01;14.60;99.90
569;DHT22;269;48.884;9.192;2022-08-21T04:08:28;14.60;99.90
569;DHT22;269;48.884;9.192;2022-08-21T04:10:57;14.50;99.90
569;DHT22;269;48.884;9.192;2022-08-21T04:13:26;14.50;99.90
569;DHT22;269;48.884;9.192;2022-08-21T04:15:55;14.40;99.90
569;DHT22;269;48.884;9.192;2022-08-21T04:18:23;14.40;99.90
569;DHT22;269;48.884;9.192;2022-08-21T04:20:51;14.40;99.90
569;DHT22;269;48.884;9.192;2022-08-21T04:23:21;14.40;99.90
569;DHT22;269;48.884;9.192;2022-08-21T04:25:48;14.30;99.90
569;DHT22;269;48.884;9.192;2022-08-21T04:28:15;14.30;99.90
569;DHT22;269;48.884;9.192;2022-08-21T04:30:44;14.30;99.90
569;DHT22;269;48.884;9.192;2022-08-21T04:33:11;14.30;99.90
569;DHT22;269;48.884;9.192;2022-08-21T04:35:39;14.40;99.90
569;DHT22;269;48.884;9.192;2022-08-21T04:38:07;14.40;99.90
569;DHT22;269;48.884;9.192;2022-08-21T04:40:34;14.40;99.90
569;DHT22;269;48.884;9.192;2022-08-21T04:43:08;14.50;99.90
569;DHT22;269;48.884;9.192;2022-08-21T04:45:38;14.50;99.90
569;DHT22;269;48.884;9.192;2022-08-21T04:48:08;14.50;99.90
569;DHT22;269;48.884;9.192;2022-08-21T04:50:39;14.50;99.90
569;DHT22;269;48.884;9.192;2022-08-21T04:53:10;14.50;99.90
569;DHT22;269;48.884;9.192;2022-08-21T04:55:38;14.60;99.90
569;DHT22;269;48.884;9.192;2022-08-21T04:58:07;14.60;99.90
569;DHT22;269;48.884;9.192;2022-08-21T05:00:35;14.60;99.90
569;DHT22;269;48.884;9.192;2022-08-21T05:03:04;14.60;99.90
569;DHT22;269;48.884;9.192;2022-08-21T05:05:33;14.60;99.90
569;DHT22;269;48.884;9.192;2022-08-21T05:08:01;14.70;99.90
569;DHT22;269;48.884;9.192;2022-08-21T05:10:29;14.70;99.90
569;DHT22;269;48.884;9.192;2022-08-21T05:12:58;14.80;99.90
569;DHT22;269;48.884;9.192;2022-08-21T05:15:26;14.80;99.90
569;DHT22;269;48.884;9.192;2022-08-21T05:17:55;14.80;99.90
569;DHT22;269;48.884;9.192;2022-08-21T05:20:23;14.90;99.90
569;DHT22;269;48.884;9.192;2022-08-21T05:22:51;14.90;99.90
569;DHT22;269;48.884;9.192;2022-08-21T05:25:19;15.00;99.90
569;DHT22;269;48.884;9.192;2022-08-21T05:27:46;15.00;99.90
569;DHT22;269;48.884;9.192;2022-08-21T05:30:13;15.10;99.90
569;DHT22;269;48.884;9.192;2022-08-21T05:32:40;15.10;99.90
569;DHT22;269;48.884;9.192;2022-08-21T05:35:08;15.10;99.90
569;DHT22;269;48.884;9.192;2022-08-21T05:37:35;15.20;99.90
569;DHT22;269;48.884;9.192;2022-08-21T05:40:06;15.20;99.90
569;DHT22;269;48.884;9.192;2022-08-21T05:42:33;15.20;99.90
569;DHT22;269;48.884;9.192;2022-08-21T05:45:00;15.30;99.90
569;DHT22;269;48.884;9.192;2022-08-21T05:47:28;15.30;99.90
569;DHT22;269;48.884;9.192;2022-08-21T05:49:55;15.40;99.90
569;DHT22;269;48.884;9.192;2022-08-21T05:52:22;15.40;99.90
569;DHT22;269;48.884;9.192;2022-08-21T05:54:50;15.50;99.90
569;DHT22;269;48.884;9.192;2022-08-21T05:57:21;15.50;99.90
569;DHT22;269;48.884;9.192;2022-08-21T05:59:49;15.60;99.90
569;DHT22;269;48.884;9.192;2022-08-21T06:02:17;15.70;99.90
569;DHT22;269;48.884;9.192;2022-08-21T06:04:44;15.70;99.90
569;DHT22;269;48.884;9.192;2022-08-21T06:07:11;15.80;99.90
569;DHT22;269;48.884;9.192;2022-08-21T06:09:38;15.90;99.90
569;DHT22;269;48.884;9.192;2022-08-21T06:12:08;16.00;99.90
569;DHT22;269;48.884;9.192;2022-08-21T06:14:38;16.10;99.90
569;DHT22;269;48.884;9.192;2022-08-21T06:17:07;16.20;99.90
569;DHT22;269;48.884;9.192;2022-08-21T06:19:36;16.20;99.90
569;DHT22;269;48.884;9.192;2022-08-21T06:22:04;16.30;99.90
569;DHT22;269;48.884;9.192;2022-08-21T06:24:31;16.30;99.90
569;DHT22;269;48.884;9.192;2022-08-21T06:27:04;16.40;99.90
569;DHT22;269;48.884;9.192;2022-08-21T06:29:32;16.50;99.90
569;DHT22;269;48.884;9.192;2022-08-21T06:32:00;16.60;99.90
569;DHT22;269;48.884;9.192;2022-08-21T06:34:28;16.70;99.90
569;DHT22;269;48.884;9.192;2022-08-21T06:36:55;16.80;99.90
569;DHT22;269;48.884;9.192;2022-08-21T06:39:22;16.90;99.90
569;DHT22;269;48.884;9.192;2022-08-21T06:41:49;17.10;99.90
569;DHT22;269;48.884;9.192;2022-08-21T06:44:16;17.30;99.90
569;DHT22;269;48.884;9.192;2022-08-21T06:46:44;17.50;99.90
569;DHT22;269;48.884;9.192;2022-08-21T06:49:12;17.70;99.90
569;DHT22;269;48.884;9.192;2022-08-21T06:51:40;18.00;99.90
569;DHT22;269;48.884;9.192;2022-08-21T06:54:07;18.20;99.90
569;DHT22;269;48.884;9.192;2022-08-21T06:56:35;18.50;99.90
569;DHT22;269;48.884;9.192;2022-08-21T06:59:03;18.90;99.90
569;DHT22;269;48.884;9.192;2022-08-21T07:01:31;19.20;99.90
569;DHT22;269;48.884;9.192;2022-08-21T07:03:58;19.60;99.90
569;DHT22;269;48.884;9.192;2022-08-21T07:06:27;19.90;99.90
569;DHT22;269;48.884;9.192;2022-08-21T15:29:22;34.80;45.90
569;DHT22;269;48.884;9.192;2022-08-21T15:31:52;35.00;45.40
569;DHT22;269;48.884;9.192;2022-08-21T15:34:20;35.50;44.50
569;DHT22;269;48.884;9.192;2022-08-21T15:36:47;35.90;44.60
569;DHT22;269;48.884;9.192;2022-08-21T15:39:14;36.00;43.60
569;DHT22;269;48.884;9.192;2022-08-21T15:41:42;36.10;43.60
569;DHT22;269;48.884;9.192;2022-08-21T15:44:10;35.60;42.80
569;DHT22;269;48.884;9.192;2022-08-21T15:46:40;35.00;43.70
569;DHT22;269;48.884;9.192;2022-08-21T15:49:07;34.60;44.50
569;DHT22;269;48.884;9.192;2022-08-21T15:51:34;34.60;45.00
569;DHT22;269;48.884;9.192;2022-08-21T15:54:02;34.90;44.10
569;DHT22;269;48.884;9.192;2022-08-21T15:56:34;34.80;44.80
569;DHT22;269;48.884;9.192;2022-08-21T15:59:06;34.70;44.40
569;DHT22;269;48.884;9.192;2022-08-21T16:01:35;34.40;44.80
569;DHT22;269;48.884;9.192;2022-08-21T16:04:04;34.40;44.70
569;DHT22;269;48.884;9.192;2022-08-21T16:06:32;34.80;44.50
569;DHT22;269;48.884;9.192;2022-08-21T16:08:59;35.20;44.30
569;DHT22;269;48.884;9.192;2022-08-21T16:11:27;35.60;43.70
569;DHT22;269;48.884;9.192;2022-08-21T16:13:54;35.90;42.40
569;DHT22;269;48.884;9.192;2022-08-21T16:16:23;35.80;42.10
569;DHT22;269;48.884;9.192;2022-08-21T16:18:51;35.80;42.50
569;DHT22;269;48.884;9.192;2022-08-21T16:21:20;36.20;42.40
569;DHT22;269;48.884;9.192;2022-08-21T16:23:47;36.20;43.10
569;DHT22;269;48.884;9.192;2022-08-21T16:26:15;36.30;43.10
569;DHT22;269;48.884;9.192;2022-08-21T16:28:43;36.40;43.80
569;DHT22;269;48.884;9.192;2022-08-21T16:31:12;36.60;43.40
569;DHT22;269;48.884;9.192;2022-08-21T16:33:41;36.50;42.80
569;DHT22;269;48.884;9.192;2022-08-21T16:36:10;36.10;43.60
569;DHT22;269;48.884;9.192;2022-08-21T16:38:38;35.70;44.30
569;DHT22;269;48.884;9.192;2022-08-21T16:41:09;35.20;44.10
569;DHT22;269;48.884;9.192;2022-08-21T16:43:38;34.70;44.70
569;DHT22;269;48.884;9.192;2022-08-21T16:46:07;34.20;45.70
569;DHT22;269;48.884;9.192;2022-08-21T16:48:34;33.70;45.60
569;DHT22;269;48.884;9.192;2022-08-21T16:51:01;33.20;45.60
569;DHT22;269;48.884;9.192;2022-08-21T16:53:28;32.50;46.40
569;DHT22;269;48.884;9.192;2022-08-21T16:55:57;31.90;47.80
569;DHT22;269;48.884;9.192;2022-08-21T16:58:26;31.40;49.70
569;DHT22;269;48.884;9.192;2022-08-21T17:00:55;30.90;49.40
569;DHT22;269;48.884;9.192;2022-08-21T17:03:27;30.50;49.90
569;DHT22;269;48.884;9.192;2022-08-21T17:05:56;30.10;50.00
569;DHT22;269;48.884;9.192;2022-08-21T17:08:23;29.80;51.00
569;DHT22;269;48.884;9.192;2022-08-21T17:10:50;29.50;51.40
569;DHT22;269;48.884;9.192;2022-08-21T17:13:19;29.30;51.50
569;DHT22;269;48.884;9.192;2022-08-21T17:15:46;29.10;51.90
569;DHT22;269;48.884;9.192;2022-08-21T17:18:16;28.90;52.60
569;DHT22;269;48.884;9.192;2022-08-21T17:20:44;28.70;52.50
569;DHT22;269;48.884;9.192;2022-08-21T17:23:12;28.60;53.30
569;DHT22;269;48.884;9.192;2022-08-21T17:25:42;28.50;53.20
569;DHT22;269;48.884;9.192;2022-08-21T17:28:13;28.40;53.20
569;DHT22;269;48.884;9.192;2022-08-21T17:30:43;28.30;53.50
569;DHT22;269;48.884;9.192;2022-08-21T17:33:11;28.20;54.10
569;DHT22;269;48.884;9.192;2022-08-21T17:35:39;28.00;54.20
569;DHT22;269;48.884;9.192;2022-08-21T17:38:07;27.90;54.00
569;DHT22;269;48.884;9.192;2022-08-21T17:40:34;27.80;54.20
569;DHT22;269;48.884;9.192;2022-08-21T17:43:02;27.70;54.40
569;DHT22;269;48.884;9.192;2022-08-21T17:45:29;27.50;54.60
569;DHT22;269;48.884;9.192;2022-08-21T17:47:58;27.40;54.40
569;DHT22;269;48.884;9.192;2022-08-21T17:50:25;27.30;54.40
569;DHT22;269;48.884;9.192;2022-08-21T17:52:52;27.10;54.20
569;DHT22;269;48.884;9.192;2022-08-21T17:55:20;27.00;54.60
569;DHT22;269;48.884;9.192;2022-08-21T17:57:49;26.90;54.80
569;DHT22;269;48.884;9.192;2022-08-21T18:00:18;26.80;55.00
569;DHT22;269;48.884;9.192;2022-08-21T18:02:46;26.70;55.20
569;DHT22;269;48.884;9.192;2022-08-21T18:05:17;26.60;55.80
569;DHT22;269;48.884;9.192;2022-08-21T18:07:45;26.40;56.30
569;DHT22;269;48.884;9.192;2022-08-21T18:10:12;26.30;56.70
569;DHT22;269;48.884;9.192;2022-08-21T18:12:41;26.20;56.40
569;DHT22;269;48.884;9.192;2022-08-21T18:15:10;26.10;56.50
569;DHT22;269;48.884;9.192;2022-08-21T18:17:39;26.00;56.80
569;DHT22;269;48.884;9.192;2022-08-21T18:20:09;25.90;57.10
569;DHT22;269;48.884;9.192;2022-08-21T18:22:37;25.70;56.40
569;DHT22;269;48.884;9.192;2022-08-21T18:25:05;25.70;56.60
569;DHT22;269;48.884;9.192;2022-08-21T18:27:33;25.50;57.10
569;DHT22;269;48.884;9.192;2022-08-21T18:30:00;25.40;57.40
569;DHT22;269;48.884;9.192;2022-08-21T18:32:28;25.30;57.50
569;DHT22;269;48.884;9.192;2022-08-21T18:34:56;25.20;58.50
569;DHT22;269;48.884;9.192;2022-08-21T18:37:24;25.20;58.90
569;DHT22;269;48.884;9.192;2022-08-21T18:39:52;25.10;59.30
569;DHT22;269;48.884;9.192;2022-08-21T18:42:19;25.00;60.00
569;DHT22;269;48.884;9.192;2022-08-21T18:44:49;24.90;60.20
569;DHT22;269;48.884;9.192;2022-08-21T18:47:21;24.80;60.80
569;DHT22;269;48.884;9.192;2022-08-21T18:49:48;24.70;62.00
569;DHT22;269;48.884;9.192;2022-08-21T18:52:15;24.60;61.20
569;DHT22;269;48.884;9.192;2022-08-21T18:54:42;24.50;62.20
569;DHT22;269;48.884;9.192;2022-08-21T18:57:11;24.50;61.70
569;DHT22;269;48.884;9.192;2022-08-21T18:59:39;24.40;62.20
569;DHT22;269;48.884;9.192;2022-08-21T19:02:06;24.40;62.60
569;DHT22;269;48.884;9.192;2022-08-21T19:04:34;24.30;63.00
569;DHT22;269;48.884;9.192;2022-08-21T19:07:01;24.30;62.10
569;DHT22;269;48.884;9.192;2022-08-21T19:09:28;24.20;60.70
569;DHT22;269;48.884;9.192;2022-08-21T19:11:57;24.20;61.70
569;DHT22;269;48.884;9.192;2022-08-21T19:14:26;24.10;61.30
569;DHT22;269;48.884;9.192;2022-08-21T19:16:54;24.30;61.70
569;DHT22;269;48.884;9.192;2022-08-21T19:19:21;24.00;61.40
569;DHT22;269;48.884;9.192;2022-08-21T19:21:48;24.00;61.30
569;DHT22;269;48.884;9.192;2022-08-21T19:24:15;23.90;61.50
569;DHT22;269;48.884;9.192;2022-08-21T19:26:43;23.90;61.70
569;DHT22;269;48.884;9.192;2022-08-21T19:29:11;23.80;61.70
569;DHT22;269;48.884;9.192;2022-08-21T19:31:44;23.80;60.80
569;DHT22;269;48.884;9.192;2022-08-21T19:34:22;23.70;61.90
569;DHT22;269;48.884;9.192;2022-08-21T19:36:51;23.70;61.30
569;DHT22;269;48.884;9.192;2022-08-21T19:39:22;23.60;61.60
569;DHT22;269;48.884;9.192;2022-08-21T19:41:53;23.60;61.90
569;DHT22;269;48.884;9.192;2022-08-21T19:44:23;23.50;62.50
569;DHT22;269;48.884;9.192;2022-08-21T19:46:52;23.50;63.70
569;DHT22;269;48.884;9.192;2022-08-21T19:49:24;23.40;63.40
569;DHT22;269;48.884;9.192;2022-08-21T19:51:53;23.40;64.30
569;DHT22;269;48.884;9.192;2022-08-21T19:54:23;23.30;64.00
569;DHT22;269;48.884;9.192;2022-08-21T19:56:52;23.40;64.00
569;DHT22;269;48.884;9.192;2022-08-21T19:59:20;23.20;63.60
569;DHT22;269;48.884;9.192;2022-08-21T20:01:48;23.20;64.30
569;DHT22;269;48.884;9.192;2022-08-21T20:04:16;23.20;63.80
569;DHT22;269;48.884;9.192;2022-08-21T20:06:43;23.10;64.10
569;DHT22;269;48.884;9.192;2022-08-21T20:09:11;23.00;64.20
569;DHT22;269;48.884;9.192;2022-08-21T20:11:41;23.00;64.80
569;DHT22;269;48.884;9.192;2022-08-21T20:14:11;23.00;65.40
569;DHT22;269;48.884;9.192;2022-08-21T20:16:40;22.90;66.20
569;DHT22;269;48.884;9.192;2022-08-21T20:19:08;22.90;65.40
569;DHT22;269;48.884;9.192;2022-08-21T20:21:38;22.90;66.00
569;DHT22;269;48.884;9.192;2022-08-21T20:24:05;22.80;67.10
569;DHT22;269;48.884;9.192;2022-08-21T20:26:33;22.70;67.60
569;DHT22;269;48.884;9.192;2022-08-21T20:29:02;22.90;67.10
569;DHT22;269;48.884;9.192;2022-08-21T20:31:30;22.80;67.10
569;DHT22;269;48.884;9.192;2022-08-21T20:33:57;22.80;67.60
569;DHT22;269;48.884;9.192;2022-08-21T20:36:24;22.60;66.70
569;DHT22;269;48.884;9.192;2022-08-21T20:38:53;22.60;66.10
569;DHT22;269;48.884;9.192;2022-08-21T20:41:22;22.60;65.20
569;DHT22;269;48.884;9.192;2022-08-21T20:43:50;22.50;64.70
569;DHT22;269;48.884;9.192;2022-08-21T20:46:21;22.40;66.80
569;DHT22;269;48.884;9.192;2022-08-21T20:48:48;22.30;68.50
569;DHT22;269;48.884;9.192;2022-08-21T20:51:21;22.10;67.00
569;DHT22;269;48.884;9.192;2022-08-21T20:53:57;21.80;67.60
569;DHT22;269;48.884;9.192;2022-08-21T20:56:34;21.70;68.50
569;DHT22;269;48.884;9.192;2022-08-21T20:59:13;21.60;68.90
569;DHT22;269;48.884;9.192;2022-08-21T21:01:42;21.50;69.00
569;DHT22;269;48.884;9.192;2022-08-21T21:04:23;21.50;69.50
569;DHT22;269;48.884;9.192;2022-08-21T21:06:51;21.50;69.70
569;DHT22;269;48.884;9.192;2022-08-21T21:09:33;21.50;69.10
569;DHT22;269;48.884;9.192;2022-08-21T21:12:04;21.50;68.70
569;DHT22;269;48.884;9.192;2022-08-21T21:14:37;21.50;68.80
569;DHT22;269;48.884;9.192;2022-08-21T21:17:06;21.50;68.40
569;DHT22;269;48.884;9.192;2022-08-21T21:19:42;21.50;67.90
569;DHT22;269;48.884;9.192;2022-08-21T21:22:14;21.60;67.90
569;DHT22;269;48.884;9.192;2022-08-21T21:24:49;21.60;67.70
569;DHT22;269;48.884;9.192;2022-08-21T21:27:23;21.60;67.50
569;DHT22;269;48.884;9.192;2022-08-21T21:29:55;21.60;67.80
569;DHT22;269;48.884;9.192;2022-08-21T21:32:26;21.60;67.70
569;DHT22;269;48.884;9.192;2022-08-21T21:34:53;21.60;67.70
569;DHT22;269;48.884;9.192;2022-08-21T21:37:24;21.60;67.70
569;DHT22;269;48.884;9.192;2022-08-21T21:40:05;21.60;68.10
569;DHT22;269;48.884;9.192;2022-08-21T21:42:40;21.60;68.30
569;DHT22;269;48.884;9.192;2022-08-21T21:45:15;21.60;68.70
569;DHT22;269;48.884;9.192;2022-08-21T21:47:56;21.50;69.60
569;DHT22;269;48.884;9.192;2022-08-21T21:50:39;21.30;70.80
569;DHT22;269;48.884;9.192;2022-08-21T21:53:18;21.00;72.20
569;DHT22;269;48.884;9.192;2022-08-21T21:56:01;20.90;73.50
569;DHT22;269;48.884;9.192;2022-08-21T21:58:53;20.70;75.00
569;DHT22;269;48.884;9.192;2022-08-21T22:01:27;20.60;75.50
569;DHT22;269;48.884;9.192;2022-08-21T22:04:00;20.50;76.20
569;DHT22;269;48.884;9.192;2022-08-21T22:06:34;20.40;77.20
569;DHT22;269;48.884;9.192;2022-08-21T22:09:09;20.30;76.90
569;DHT22;269;48.884;9.192;2022-08-21T22:11:47;20.20;78.20
569;DHT22;269;48.884;9.192;2022-08-21T22:14:18;20.10;78.90
569;DHT22;269;48.884;9.192;2022-08-21T22:16:47;20.00;80.00
569;DHT22;269;48.884;9.192;2022-08-21T22:19:18;19.90;81.40
569;DHT22;269;48.884;9.192;2022-08-21T22:21:49;19.90;83.10
569;DHT22;269;48.884;9.192;2022-08-21T22:24:22;19.80;84.10
569;DHT22;269;48.884;9.192;2022-08-21T22:26:55;19.70;84.80
569;DHT22;269;48.884;9.192;2022-08-21T22:29:25;19.80;85.70
569;DHT22;269;48.884;9.192;2022-08-21T22:32:08;19.70;86.20
569;DHT22;269;48.884;9.192;2022-08-21T22:34:36;19.70;87.30
569;DHT22;269;48.884;9.192;2022-08-21T22:37:06;19.60;88.00
569;DHT22;269;48.884;9.192;2022-08-21T22:39:37;19.60;88.60
569;DHT22;269;48.884;9.192;2022-08-21T22:42:09;19.50;89.50
569;DHT22;269;48.884;9.192;2022-08-21T22:44:49;19.50;90.10
569;DHT22;269;48.884;9.192;2022-08-21T22:47:20;19.50;90.40
569;DHT22;269;48.884;9.192;2022-08-21T22:49:49;19.50;90.70
569;DHT22;269;48.884;9.192;2022-08-21T22:52:22;19.50;91.00
569;DHT22;269;48.884;9.192;2022-08-21T22:54:51;19.40;91.10
569;DHT22;269;48.884;9.192;2022-08-21T22:57:26;19.40;91.50
569;DHT22;269;48.884;9.192;2022-08-21T22:59:57;19.30;91.70
569;DHT22;269;48.884;9.192;2022-08-21T23:02:37;19.30;92.00
569;DHT22;269;48.884;9.192;2022-08-21T23:05:15;19.30;92.30
569;DHT22;269;48.884;9.192;2022-08-21T23:07:43;19.40;92.60
569;DHT22;269;48.884;9.192;2022-08-21T23:10:19;19.30;92.90
569;DHT22;269;48.884;9.192;2022-08-21T23:12:58;19.30;93.00
569;DHT22;269;48.884;9.192;2022-08-21T23:15:29;19.30;93.20
569;DHT22;269;48.884;9.192;2022-08-21T23:18:02;19.20;93.20
569;DHT22;269;48.884;9.192;2022-08-21T23:20:37;19.20;93.70
569;DHT22;269;48.884;9.192;2022-08-21T23:23:15;19.20;93.70
569;DHT22;269;48.884;9.192;2022-08-21T23:26:07;19.20;94.00
569;DHT22;269;48.884;9.192;2022-08-21T23:31:33;19.10;94.00
569;DHT22;269;48.884;9.192;2022-08-21T23:34:11;19.10;94.50
569;DHT22;269;48.884;9.192;2022-08-21T23:36:56;19.10;94.90
569;DHT22;269;48.884;9.192;2022-08-21T23:39:52;19.00;95.10
569;DHT22;269;48.884;9.192;2022-08-21T23:42:42;18.90;95.40
569;DHT22;269;48.884;9.192;2022-08-21T23:45:20;18.90;96.00
569;DHT22;269;48.884;9.192;2022-08-21T23:47:56;18.70;97.00
569;DHT22;269;48.884;9.192;2022-08-21T23:50:33;18.50;97.70
569;DHT22;269;48.884;9.192;2022-08-21T23:53:09;18.50;98.30
569;DHT22;269;48.884;9.192;2022-08-21T23:55:46;18.40;98.60
569;DHT22;269;48.884;9.192;2022-08-21T23:58:25;18.30;99.00
